sensor_id;sensor_type;location;lat;lon;timestamp;P1;durP1;ratioP1;P2;durP2;ratioP2
773;SDS011;370;48.810;9.150;2023-10-13T00:01:08;4.13;;;3.00;;
773;SDS011;370;48.810;9.150;2023-10-13T00:03:37;5.20;;;2.47;;
773;SDS011;370;48.810;9.150;2023-10-13T00:06:06;6.70;;;2.80;;
773;SDS011;370;48.810;9.150;2023-10-13T00:08:33;8.30;;;2.80;;
773;SDS011;370;48.810;9.150;2023-10-13T00:11:01;5.43;;;2.37;;
773;SDS011;370;48.810;9.150;2023-10-13T00:13:29;7.40;;;2.97;;
773;SDS011;370;48.810;9.150;2023-10-13T00:16:05;8.57;;;2.77;;
773;SDS011;370;48.810;9.150;2023-10-13T00:18:34;14.37;;;2.87;;
773;SDS011;370;48.810;9.150;2023-10-13T00:21:08;6.87;;;3.30;;
773;SDS011;370;48.810;9.150;2023-10-13T00:23:38;17.83;;;3.10;;
773;SDS011;370;48.810;9.150;2023-10-13T00:26:08;5.10;;;2.83;;
773;SDS011;370;48.810;9.150;2023-10-13T00:28:36;3.43;;;1.97;;
773;SDS011;370;48.810;9.150;2023-10-13T00:31:10;9.60;;;3.23;;
773;SDS011;370;48.810;9.150;2023-10-13T00:33:39;9.70;;;2.77;;
773;SDS011;370;48.810;9.150;2023-10-13T00:36:08;8.93;;;3.77;;
773;SDS011;370;48.810;9.150;2023-10-13T00:38:42;11.53;;;4.17;;
773;SDS011;370;48.810;9.150;2023-10-13T00:41:13;5.10;;;2.70;;
773;SDS011;370;48.810;9.150;2023-10-13T00:43:45;6.33;;;2.57;;
773;SDS011;370;48.810;9.150;2023-10-13T00:46:29;6.93;;;1.70;;
773;SDS011;370;48.810;9.150;2023-10-13T00:49:00;2.87;;;1.73;;
773;SDS011;370;48.810;9.150;2023-10-13T00:51:30;6.43;;;2.50;;
773;SDS011;370;48.810;9.150;2023-10-13T00:54:01;4.00;;;1.80;;
773;SDS011;370;48.810;9.150;2023-10-13T00:56:32;4.27;;;2.10;;
773;SDS011;370;48.810;9.150;2023-10-13T00:59:05;4.70;;;2.47;;
773;SDS011;370;48.810;9.150;2023-10-13T01:01:34;2.50;;;2.00;;
773;SDS011;370;48.810;9.150;2023-10-13T01:04:01;3.13;;;2.13;;
773;SDS011;370;48.810;9.150;2023-10-13T01:06:31;4.60;;;1.90;;
773;SDS011;370;48.810;9.150;2023-10-13T01:08:59;2.50;;;2.13;;
773;SDS011;370;48.810;9.150;2023-10-13T01:11:36;7.40;;;2.70;;
773;SDS011;370;48.810;9.150;2023-10-13T01:14:03;6.13;;;2.10;;
773;SDS011;370;48.810;9.150;2023-10-13T01:16:31;3.53;;;1.70;;
773;SDS011;370;48.810;9.150;2023-10-13T01:18:58;8.77;;;1.87;;
773;SDS011;370;48.810;9.150;2023-10-13T01:21:25;3.30;;;2.10;;
773;SDS011;370;48.810;9.150;2023-10-13T01:23:55;11.90;;;3.00;;
773;SDS011;370;48.810;9.150;2023-10-13T01:26:20;9.13;;;1.97;;
773;SDS011;370;48.810;9.150;2023-10-13T01:28:49;2.77;;;1.70;;
773;SDS011;370;48.810;9.150;2023-10-13T01:31:15;4.37;;;2.00;;
773;SDS011;370;48.810;9.150;2023-10-13T01:33:53;6.30;;;1.87;;
773;SDS011;370;48.810;9.150;2023-10-13T01:36:20;7.47;;;2.73;;
773;SDS011;370;48.810;9.150;2023-10-13T01:38:48;7.63;;;2.40;;
773;SDS011;370;48.810;9.150;2023-10-13T01:41:16;6.33;;;2.47;;
773;SDS011;370;48.810;9.150;2023-10-13T01:43:45;3.73;;;2.47;;
773;SDS011;370;48.810;9.150;2023-10-13T01:46:11;2.93;;;2.20;;
773;SDS011;370;48.810;9.150;2023-10-13T01:48:40;2.37;;;1.60;;
773;SDS011;370;48.810;9.150;2023-10-13T01:51:08;4.33;;;1.57;;
773;SDS011;370;48.810;9.150;2023-10-13T01:53:36;3.80;;;1.97;;
773;SDS011;370;48.810;9.150;2023-10-13T01:56:03;7.70;;;1.90;;
773;SDS011;370;48.810;9.150;2023-10-13T01:58:36;10.57;;;2.50;;
773;SDS011;370;48.810;9.150;2023-10-13T02:01:06;3.00;;;2.10;;
773;SDS011;370;48.810;9.150;2023-10-13T02:03:34;6.23;;;2.20;;
773;SDS011;370;48.810;9.150;2023-10-13T02:06:01;5.40;;;2.17;;
773;SDS011;370;48.810;9.150;2023-10-13T02:08:30;3.33;;;2.00;;
773;SDS011;370;48.810;9.150;2023-10-13T02:10:57;11.80;;;2.20;;
773;SDS011;370;48.810;9.150;2023-10-13T02:13:26;7.40;;;1.73;;
773;SDS011;370;48.810;9.150;2023-10-13T02:15:56;7.60;;;2.73;;
773;SDS011;370;48.810;9.150;2023-10-13T02:18:28;5.90;;;2.40;;
773;SDS011;370;48.810;9.150;2023-10-13T02:21:02;4.97;;;2.40;;
773;SDS011;370;48.810;9.150;2023-10-13T02:23:30;3.93;;;2.30;;
773;SDS011;370;48.810;9.150;2023-10-13T02:25:59;9.33;;;2.00;;
773;SDS011;370;48.810;9.150;2023-10-13T02:28:26;10.00;;;2.27;;
773;SDS011;370;48.810;9.150;2023-10-13T02:30:55;6.20;;;2.20;;
773;SDS011;370;48.810;9.150;2023-10-13T02:33:22;3.57;;;1.70;;
773;SDS011;370;48.810;9.150;2023-10-13T02:35:54;2.20;;;1.67;;
773;SDS011;370;48.810;9.150;2023-10-13T02:38:21;5.43;;;2.20;;
773;SDS011;370;48.810;9.150;2023-10-13T02:40:59;3.73;;;2.57;;
773;SDS011;370;48.810;9.150;2023-10-13T02:43:30;2.90;;;1.70;;
773;SDS011;370;48.810;9.150;2023-10-13T02:46:01;6.73;;;2.10;;
773;SDS011;370;48.810;9.150;2023-10-13T02:48:28;4.27;;;1.93;;
773;SDS011;370;48.810;9.150;2023-10-13T02:51:05;6.40;;;2.80;;
773;SDS011;370;48.810;9.150;2023-10-13T02:53:40;4.60;;;2.23;;
773;SDS011;370;48.810;9.150;2023-10-13T02:56:11;5.53;;;2.07;;
773;SDS011;370;48.810;9.150;2023-10-13T02:58:38;4.80;;;2.10;;
773;SDS011;370;48.810;9.150;2023-10-13T03:01:10;10.57;;;1.97;;
773;SDS011;370;48.810;9.150;2023-10-13T03:03:43;3.63;;;1.80;;
773;SDS011;370;48.810;9.150;2023-10-13T03:06:15;6.63;;;2.27;;
773;SDS011;370;48.810;9.150;2023-10-13T03:08:41;5.77;;;2.40;;
773;SDS011;370;48.810;9.150;2023-10-13T03:11:09;3.80;;;1.73;;
773;SDS011;370;48.810;9.150;2023-10-13T03:13:36;7.80;;;3.00;;
773;SDS011;370;48.810;9.150;2023-10-13T03:16:13;8.70;;;1.70;;
773;SDS011;370;48.810;9.150;2023-10-13T03:18:41;8.97;;;2.50;;
773;SDS011;370;48.810;9.150;2023-10-13T03:21:17;3.70;;;2.03;;
773;SDS011;370;48.810;9.150;2023-10-13T03:23:53;7.80;;;2.47;;
773;SDS011;370;48.810;9.150;2023-10-13T03:26:21;4.53;;;2.87;;
773;SDS011;370;48.810;9.150;2023-10-13T03:28:47;5.00;;;2.70;;
773;SDS011;370;48.810;9.150;2023-10-13T03:31:18;2.90;;;1.80;;
773;SDS011;370;48.810;9.150;2023-10-13T03:33:52;10.80;;;2.30;;
773;SDS011;370;48.810;9.150;2023-10-13T03:36:24;16.30;;;2.40;;
773;SDS011;370;48.810;9.150;2023-10-13T03:39:21;5.80;;;2.30;;
773;SDS011;370;48.810;9.150;2023-10-13T03:41:54;3.70;;;2.40;;
773;SDS011;370;48.810;9.150;2023-10-13T03:44:21;6.30;;;2.27;;
773;SDS011;370;48.810;9.150;2023-10-13T03:46:50;3.53;;;1.97;;
773;SDS011;370;48.810;9.150;2023-10-13T03:49:19;3.23;;;2.10;;
773;SDS011;370;48.810;9.150;2023-10-13T03:51:47;5.20;;;2.20;;
773;SDS011;370;48.810;9.150;2023-10-13T03:54:15;8.13;;;2.10;;
773;SDS011;370;48.810;9.150;2023-10-13T03:56:42;14.43;;;2.47;;
773;SDS011;370;48.810;9.150;2023-10-13T03:59:10;4.07;;;1.80;;
773;SDS011;370;48.810;9.150;2023-10-13T04:01:44;10.50;;;2.53;;
773;SDS011;370;48.810;9.150;2023-10-13T04:04:15;5.10;;;2.47;;
773;SDS011;370;48.810;9.150;2023-10-13T04:07:00;7.20;;;2.30;;
773;SDS011;370;48.810;9.150;2023-10-13T04:09:45;6.93;;;2.60;;
773;SDS011;370;48.810;9.150;2023-10-13T04:12:32;4.80;;;2.30;;
773;SDS011;370;48.810;9.150;2023-10-13T04:15:16;4.57;;;2.50;;
773;SDS011;370;48.810;9.150;2023-10-13T04:17:52;4.93;;;2.30;;
773;SDS011;370;48.810;9.150;2023-10-13T04:20:20;4.67;;;2.27;;
773;SDS011;370;48.810;9.150;2023-10-13T04:22:58;3.40;;;2.47;;
773;SDS011;370;48.810;9.150;2023-10-13T04:25:50;4.63;;;1.90;;
773;SDS011;370;48.810;9.150;2023-10-13T04:28:46;5.37;;;2.73;;
773;SDS011;370;48.810;9.150;2023-10-13T04:31:21;3.60;;;2.27;;
773;SDS011;370;48.810;9.150;2023-10-13T04:34:10;2.73;;;1.63;;
773;SDS011;370;48.810;9.150;2023-10-13T04:36:46;5.53;;;2.23;;
773;SDS011;370;48.810;9.150;2023-10-13T04:39:12;5.30;;;2.17;;
773;SDS011;370;48.810;9.150;2023-10-13T04:41:54;5.10;;;2.27;;
773;SDS011;370;48.810;9.150;2023-10-13T04:44:23;3.40;;;2.30;;
773;SDS011;370;48.810;9.150;2023-10-13T04:47:08;4.10;;;2.27;;
773;SDS011;370;48.810;9.150;2023-10-13T04:49:42;10.13;;;2.07;;
773;SDS011;370;48.810;9.150;2023-10-13T04:52:18;4.47;;;2.47;;
773;SDS011;370;48.810;9.150;2023-10-13T04:55:03;5.10;;;2.30;;
773;SDS011;370;48.810;9.150;2023-10-13T04:57:44;13.43;;;2.50;;
773;SDS011;370;48.810;9.150;2023-10-13T05:00:15;4.10;;;1.90;;
773;SDS011;370;48.810;9.150;2023-10-13T05:03:00;2.97;;;2.10;;
773;SDS011;370;48.810;9.150;2023-10-13T05:05:58;3.90;;;1.70;;
773;SDS011;370;48.810;9.150;2023-10-13T05:08:58;18.27;;;2.60;;
773;SDS011;370;48.810;9.150;2023-10-13T05:11:43;10.43;;;2.00;;
773;SDS011;370;48.810;9.150;2023-10-13T05:14:35;4.33;;;2.10;;
773;SDS011;370;48.810;9.150;2023-10-13T05:17:19;4.33;;;2.17;;
773;SDS011;370;48.810;9.150;2023-10-13T05:20:04;8.23;;;2.57;;
773;SDS011;370;48.810;9.150;2023-10-13T05:22:49;15.53;;;2.50;;
773;SDS011;370;48.810;9.150;2023-10-13T05:25:36;6.50;;;1.97;;
773;SDS011;370;48.810;9.150;2023-10-13T05:28:21;2.97;;;2.30;;
773;SDS011;370;48.810;9.150;2023-10-13T05:31:06;7.50;;;1.97;;
773;SDS011;370;48.810;9.150;2023-10-13T05:33:50;9.13;;;2.70;;
773;SDS011;370;48.810;9.150;2023-10-13T05:36:34;3.43;;;1.93;;
773;SDS011;370;48.810;9.150;2023-10-13T05:39:18;5.57;;;2.10;;
773;SDS011;370;48.810;9.150;2023-10-13T05:42:04;7.47;;;2.10;;
773;SDS011;370;48.810;9.150;2023-10-13T05:44:48;9.03;;;2.20;;
773;SDS011;370;48.810;9.150;2023-10-13T05:47:42;6.43;;;2.43;;
773;SDS011;370;48.810;9.150;2023-10-13T05:50:26;6.67;;;2.30;;
773;SDS011;370;48.810;9.150;2023-10-13T05:53:14;8.40;;;2.33;;
773;SDS011;370;48.810;9.150;2023-10-13T05:56:02;3.97;;;2.30;;
773;SDS011;370;48.810;9.150;2023-10-13T05:58:48;7.73;;;2.07;;
773;SDS011;370;48.810;9.150;2023-10-13T06:01:33;4.27;;;2.47;;
773;SDS011;370;48.810;9.150;2023-10-13T06:04:17;3.40;;;2.00;;
773;SDS011;370;48.810;9.150;2023-10-13T06:07:01;2.10;;;1.97;;
773;SDS011;370;48.810;9.150;2023-10-13T06:09:45;4.10;;;1.60;;
773;SDS011;370;48.810;9.150;2023-10-13T06:12:29;3.67;;;2.10;;
773;SDS011;370;48.810;9.150;2023-10-13T06:15:15;6.13;;;2.37;;
773;SDS011;370;48.810;9.150;2023-10-13T06:17:59;22.73;;;2.23;;
773;SDS011;370;48.810;9.150;2023-10-13T06:20:44;3.10;;;2.33;;
773;SDS011;370;48.810;9.150;2023-10-13T06:23:28;8.30;;;2.37;;
773;SDS011;370;48.810;9.150;2023-10-13T06:26:12;6.13;;;3.43;;
773;SDS011;370;48.810;9.150;2023-10-13T06:28:56;16.23;;;2.13;;
773;SDS011;370;48.810;9.150;2023-10-13T06:31:27;9.83;;;1.93;;
773;SDS011;370;48.810;9.150;2023-10-13T06:33:54;7.43;;;2.50;;
773;SDS011;370;48.810;9.150;2023-10-13T06:36:21;7.33;;;2.47;;
773;SDS011;370;48.810;9.150;2023-10-13T06:38:48;5.73;;;2.57;;
773;SDS011;370;48.810;9.150;2023-10-13T06:41:41;10.63;;;2.90;;
773;SDS011;370;48.810;9.150;2023-10-13T06:44:08;3.50;;;2.30;;
773;SDS011;370;48.810;9.150;2023-10-13T06:46:41;5.33;;;2.40;;
773;SDS011;370;48.810;9.150;2023-10-13T06:49:09;7.33;;;2.77;;
773;SDS011;370;48.810;9.150;2023-10-13T06:51:38;9.13;;;2.20;;
773;SDS011;370;48.810;9.150;2023-10-13T06:54:06;4.57;;;2.43;;
773;SDS011;370;48.810;9.150;2023-10-13T06:56:44;4.30;;;2.60;;
773;SDS011;370;48.810;9.150;2023-10-13T06:59:11;3.10;;;2.13;;
773;SDS011;370;48.810;9.150;2023-10-13T07:01:39;8.50;;;2.27;;
773;SDS011;370;48.810;9.150;2023-10-13T07:04:08;5.97;;;2.40;;
773;SDS011;370;48.810;9.150;2023-10-13T07:06:39;16.33;;;3.03;;
773;SDS011;370;48.810;9.150;2023-10-13T07:09:13;7.87;;;3.30;;
773;SDS011;370;48.810;9.150;2023-10-13T07:12:01;5.60;;;2.80;;
773;SDS011;370;48.810;9.150;2023-10-13T07:14:41;7.70;;;3.60;;
773;SDS011;370;48.810;9.150;2023-10-13T07:17:16;13.30;;;3.30;;
773;SDS011;370;48.810;9.150;2023-10-13T07:19:50;5.80;;;3.23;;
773;SDS011;370;48.810;9.150;2023-10-13T07:22:21;6.90;;;3.77;;
773;SDS011;370;48.810;9.150;2023-10-13T07:24:48;12.63;;;3.83;;
773;SDS011;370;48.810;9.150;2023-10-13T07:27:17;13.97;;;4.27;;
773;SDS011;370;48.810;9.150;2023-10-13T07:29:49;7.20;;;3.53;;
773;SDS011;370;48.810;9.150;2023-10-13T07:32:21;10.70;;;4.13;;
773;SDS011;370;48.810;9.150;2023-10-13T07:34:53;8.93;;;3.80;;
773;SDS011;370;48.810;9.150;2023-10-13T07:37:22;14.80;;;4.60;;
773;SDS011;370;48.810;9.150;2023-10-13T07:39:54;13.20;;;3.73;;
773;SDS011;370;48.810;9.150;2023-10-13T07:42:22;10.90;;;3.33;;
773;SDS011;370;48.810;9.150;2023-10-13T07:44:55;11.63;;;4.13;;
773;SDS011;370;48.810;9.150;2023-10-13T07:47:22;11.23;;;4.13;;
773;SDS011;370;48.810;9.150;2023-10-13T07:49:49;10.27;;;3.60;;
773;SDS011;370;48.810;9.150;2023-10-13T07:52:18;7.17;;;3.30;;
773;SDS011;370;48.810;9.150;2023-10-13T07:55:01;2.47;;;2.30;;
773;SDS011;370;48.810;9.150;2023-10-13T07:57:36;8.33;;;3.73;;
773;SDS011;370;48.810;9.150;2023-10-13T08:00:18;4.30;;;2.70;;
773;SDS011;370;48.810;9.150;2023-10-13T08:02:56;6.53;;;2.80;;
773;SDS011;370;48.810;9.150;2023-10-13T08:05:33;5.43;;;2.73;;
773;SDS011;370;48.810;9.150;2023-10-13T08:08:09;5.20;;;2.77;;
773;SDS011;370;48.810;9.150;2023-10-13T08:10:39;6.90;;;2.93;;
773;SDS011;370;48.810;9.150;2023-10-13T08:13:10;6.10;;;2.63;;
773;SDS011;370;48.810;9.150;2023-10-13T08:15:39;3.13;;;2.53;;
773;SDS011;370;48.810;9.150;2023-10-13T08:18:12;15.10;;;2.87;;
773;SDS011;370;48.810;9.150;2023-10-13T08:20:45;5.97;;;3.03;;
773;SDS011;370;48.810;9.150;2023-10-13T08:23:13;11.57;;;3.30;;
773;SDS011;370;48.810;9.150;2023-10-13T08:25:40;7.70;;;3.00;;
773;SDS011;370;48.810;9.150;2023-10-13T08:28:25;6.73;;;3.03;;
773;SDS011;370;48.810;9.150;2023-10-13T08:31:09;13.10;;;2.90;;
773;SDS011;370;48.810;9.150;2023-10-13T08:33:47;5.63;;;2.80;;
773;SDS011;370;48.810;9.150;2023-10-13T08:36:13;8.37;;;2.67;;
773;SDS011;370;48.810;9.150;2023-10-13T08:39:01;4.97;;;2.90;;
773;SDS011;370;48.810;9.150;2023-10-13T08:41:48;9.80;;;3.03;;
773;SDS011;370;48.810;9.150;2023-10-13T08:44:24;13.47;;;3.43;;
773;SDS011;370;48.810;9.150;2023-10-13T08:46:58;17.20;;;3.00;;
773;SDS011;370;48.810;9.150;2023-10-13T08:49:32;5.47;;;3.20;;
773;SDS011;370;48.810;9.150;2023-10-13T08:52:05;4.87;;;2.20;;
773;SDS011;370;48.810;9.150;2023-10-13T08:54:56;5.73;;;2.80;;
773;SDS011;370;48.810;9.150;2023-10-13T08:58:00;6.40;;;2.77;;
773;SDS011;370;48.810;9.150;2023-10-13T09:00:38;11.50;;;2.80;;
773;SDS011;370;48.810;9.150;2023-10-13T09:03:20;6.20;;;2.63;;
773;SDS011;370;48.810;9.150;2023-10-13T09:06:06;5.80;;;3.00;;
773;SDS011;370;48.810;9.150;2023-10-13T09:08:39;8.70;;;3.20;;
773;SDS011;370;48.810;9.150;2023-10-13T09:11:32;6.37;;;3.27;;
773;SDS011;370;48.810;9.150;2023-10-13T09:14:14;4.77;;;2.90;;
773;SDS011;370;48.810;9.150;2023-10-13T09:17:00;10.07;;;2.90;;
773;SDS011;370;48.810;9.150;2023-10-13T09:19:32;4.30;;;2.60;;
773;SDS011;370;48.810;9.150;2023-10-13T09:22:18;5.23;;;3.20;;
773;SDS011;370;48.810;9.150;2023-10-13T09:24:51;9.83;;;2.93;;
773;SDS011;370;48.810;9.150;2023-10-13T09:27:20;5.83;;;2.87;;
773;SDS011;370;48.810;9.150;2023-10-13T09:29:58;8.80;;;3.10;;
773;SDS011;370;48.810;9.150;2023-10-13T09:32:35;11.17;;;2.93;;
773;SDS011;370;48.810;9.150;2023-10-13T09:35:11;9.60;;;2.50;;
773;SDS011;370;48.810;9.150;2023-10-13T09:37:45;4.03;;;2.90;;
773;SDS011;370;48.810;9.150;2023-10-13T09:40:12;5.90;;;2.80;;
773;SDS011;370;48.810;9.150;2023-10-13T09:43:01;5.63;;;2.80;;
773;SDS011;370;48.810;9.150;2023-10-13T09:45:41;9.83;;;2.80;;
773;SDS011;370;48.810;9.150;2023-10-13T09:48:09;12.50;;;2.60;;
773;SDS011;370;48.810;9.150;2023-10-13T09:50:42;4.93;;;2.30;;
773;SDS011;370;48.810;9.150;2023-10-13T09:53:09;8.87;;;3.20;;
773;SDS011;370;48.810;9.150;2023-10-13T09:55:40;13.73;;;2.53;;
773;SDS011;370;48.810;9.150;2023-10-13T09:58:11;10.30;;;4.10;;
773;SDS011;370;48.810;9.150;2023-10-13T10:00:42;5.77;;;2.80;;
773;SDS011;370;48.810;9.150;2023-10-13T10:03:11;4.10;;;2.47;;
773;SDS011;370;48.810;9.150;2023-10-13T10:05:55;4.10;;;2.63;;
773;SDS011;370;48.810;9.150;2023-10-13T10:08:28;14.60;;;3.50;;
773;SDS011;370;48.810;9.150;2023-10-13T10:11:00;10.07;;;3.13;;
773;SDS011;370;48.810;9.150;2023-10-13T10:13:38;8.67;;;3.37;;
773;SDS011;370;48.810;9.150;2023-10-13T10:16:15;9.73;;;3.20;;
773;SDS011;370;48.810;9.150;2023-10-13T10:18:47;5.80;;;2.97;;
773;SDS011;370;48.810;9.150;2023-10-13T10:21:32;6.63;;;3.53;;
773;SDS011;370;48.810;9.150;2023-10-13T10:24:00;4.67;;;2.70;;
773;SDS011;370;48.810;9.150;2023-10-13T10:26:38;12.83;;;3.60;;
773;SDS011;370;48.810;9.150;2023-10-13T10:29:19;6.67;;;3.57;;
773;SDS011;370;48.810;9.150;2023-10-13T10:31:45;6.70;;;3.53;;
773;SDS011;370;48.810;9.150;2023-10-13T10:34:13;5.97;;;3.40;;
773;SDS011;370;48.810;9.150;2023-10-13T10:36:44;5.93;;;3.17;;
773;SDS011;370;48.810;9.150;2023-10-13T10:39:13;7.70;;;2.87;;
773;SDS011;370;48.810;9.150;2023-10-13T10:41:42;11.93;;;3.40;;
773;SDS011;370;48.810;9.150;2023-10-13T10:44:17;5.70;;;2.33;;
773;SDS011;370;48.810;9.150;2023-10-13T10:47:07;3.90;;;2.80;;
773;SDS011;370;48.810;9.150;2023-10-13T10:49:36;3.93;;;3.00;;
773;SDS011;370;48.810;9.150;2023-10-13T10:52:04;15.70;;;3.60;;
773;SDS011;370;48.810;9.150;2023-10-13T10:54:43;5.70;;;3.00;;
773;SDS011;370;48.810;9.150;2023-10-13T10:57:16;5.53;;;3.20;;
773;SDS011;370;48.810;9.150;2023-10-13T10:59:44;9.23;;;3.27;;
773;SDS011;370;48.810;9.150;2023-10-13T11:02:11;4.70;;;2.77;;
773;SDS011;370;48.810;9.150;2023-10-13T11:04:43;6.47;;;3.20;;
773;SDS011;370;48.810;9.150;2023-10-13T11:07:20;7.43;;;2.50;;
773;SDS011;370;48.810;9.150;2023-10-13T11:09:48;5.57;;;3.00;;
773;SDS011;370;48.810;9.150;2023-10-13T11:12:18;5.03;;;2.33;;
773;SDS011;370;48.810;9.150;2023-10-13T11:15:02;4.90;;;2.67;;
773;SDS011;370;48.810;9.150;2023-10-13T11:17:38;7.93;;;2.77;;
773;SDS011;370;48.810;9.150;2023-10-13T11:20:08;8.93;;;2.90;;
773;SDS011;370;48.810;9.150;2023-10-13T11:22:41;4.83;;;3.20;;
773;SDS011;370;48.810;9.150;2023-10-13T11:25:19;6.90;;;2.73;;
773;SDS011;370;48.810;9.150;2023-10-13T11:27:47;15.73;;;3.63;;
773;SDS011;370;48.810;9.150;2023-10-13T11:30:26;6.33;;;3.23;;
773;SDS011;370;48.810;9.150;2023-10-13T11:33:06;5.80;;;3.43;;
773;SDS011;370;48.810;9.150;2023-10-13T11:35:34;11.60;;;3.60;;
773;SDS011;370;48.810;9.150;2023-10-13T11:38:19;4.60;;;3.00;;
773;SDS011;370;48.810;9.150;2023-10-13T11:40:51;4.27;;;3.87;;
773;SDS011;370;48.810;9.150;2023-10-13T11:43:37;5.57;;;3.07;;
773;SDS011;370;48.810;9.150;2023-10-13T11:46:20;4.33;;;3.20;;
773;SDS011;370;48.810;9.150;2023-10-13T11:49:06;18.37;;;3.57;;
773;SDS011;370;48.810;9.150;2023-10-13T11:51:43;4.17;;;3.17;;
773;SDS011;370;48.810;9.150;2023-10-13T11:54:10;4.23;;;3.07;;
773;SDS011;370;48.810;9.150;2023-10-13T11:56:36;6.73;;;3.67;;
773;SDS011;370;48.810;9.150;2023-10-13T11:59:04;6.33;;;3.33;;
773;SDS011;370;48.810;9.150;2023-10-13T12:01:32;5.10;;;3.17;;
773;SDS011;370;48.810;9.150;2023-10-13T12:04:13;7.10;;;3.40;;
773;SDS011;370;48.810;9.150;2023-10-13T12:07:05;6.60;;;3.20;;
773;SDS011;370;48.810;9.150;2023-10-13T12:09:42;7.73;;;3.43;;
773;SDS011;370;48.810;9.150;2023-10-13T12:12:28;4.13;;;2.80;;
773;SDS011;370;48.810;9.150;2023-10-13T12:14:56;5.07;;;3.90;;
773;SDS011;370;48.810;9.150;2023-10-13T12:17:27;6.77;;;3.90;;
773;SDS011;370;48.810;9.150;2023-10-13T12:19:59;3.73;;;3.60;;
773;SDS011;370;48.810;9.150;2023-10-13T12:22:29;5.00;;;3.33;;
773;SDS011;370;48.810;9.150;2023-10-13T12:25:00;19.10;;;3.70;;
773;SDS011;370;48.810;9.150;2023-10-13T12:27:43;5.90;;;3.50;;
773;SDS011;370;48.810;9.150;2023-10-13T12:30:13;8.87;;;3.80;;
773;SDS011;370;48.810;9.150;2023-10-13T12:32:49;14.43;;;3.83;;
773;SDS011;370;48.810;9.150;2023-10-13T12:35:24;6.47;;;3.40;;
773;SDS011;370;48.810;9.150;2023-10-13T12:38:00;3.80;;;2.80;;
773;SDS011;370;48.810;9.150;2023-10-13T12:40:31;8.70;;;3.77;;
773;SDS011;370;48.810;9.150;2023-10-13T12:43:15;7.07;;;3.20;;
773;SDS011;370;48.810;9.150;2023-10-13T12:45:59;6.63;;;3.33;;
773;SDS011;370;48.810;9.150;2023-10-13T12:48:45;4.17;;;2.67;;
773;SDS011;370;48.810;9.150;2023-10-13T12:51:42;4.30;;;2.53;;
773;SDS011;370;48.810;9.150;2023-10-13T12:54:17;15.73;;;2.73;;
773;SDS011;370;48.810;9.150;2023-10-13T12:56:48;7.10;;;2.93;;
773;SDS011;370;48.810;9.150;2023-10-13T12:59:21;8.17;;;2.63;;
773;SDS011;370;48.810;9.150;2023-10-13T13:01:51;5.20;;;2.50;;
773;SDS011;370;48.810;9.150;2023-10-13T13:04:20;8.47;;;2.67;;
773;SDS011;370;48.810;9.150;2023-10-13T13:06:47;7.27;;;2.60;;
773;SDS011;370;48.810;9.150;2023-10-13T13:09:14;9.93;;;2.60;;
773;SDS011;370;48.810;9.150;2023-10-13T13:11:49;4.10;;;2.03;;
773;SDS011;370;48.810;9.150;2023-10-13T13:14:16;5.60;;;2.67;;
773;SDS011;370;48.810;9.150;2023-10-13T13:16:43;11.07;;;2.50;;
773;SDS011;370;48.810;9.150;2023-10-13T13:19:13;4.57;;;2.20;;
773;SDS011;370;48.810;9.150;2023-10-13T13:21:50;9.80;;;2.80;;
773;SDS011;370;48.810;9.150;2023-10-13T13:24:17;5.70;;;2.17;;
773;SDS011;370;48.810;9.150;2023-10-13T13:26:44;3.67;;;2.33;;
773;SDS011;370;48.810;9.150;2023-10-13T13:29:13;10.43;;;2.00;;
773;SDS011;370;48.810;9.150;2023-10-13T13:31:40;8.77;;;2.50;;
773;SDS011;370;48.810;9.150;2023-10-13T13:34:08;4.40;;;2.43;;
773;SDS011;370;48.810;9.150;2023-10-13T13:36:37;8.33;;;2.60;;
773;SDS011;370;48.810;9.150;2023-10-13T13:39:10;9.80;;;2.37;;
773;SDS011;370;48.810;9.150;2023-10-13T13:41:50;5.73;;;2.00;;
773;SDS011;370;48.810;9.150;2023-10-13T13:44:21;5.20;;;2.47;;
773;SDS011;370;48.810;9.150;2023-10-13T13:46:54;3.90;;;1.90;;
773;SDS011;370;48.810;9.150;2023-10-13T13:49:22;18.40;;;2.90;;
773;SDS011;370;48.810;9.150;2023-10-13T13:51:55;10.10;;;2.37;;
773;SDS011;370;48.810;9.150;2023-10-13T13:54:30;21.10;;;2.37;;
773;SDS011;370;48.810;9.150;2023-10-13T13:56:57;3.43;;;2.17;;
773;SDS011;370;48.810;9.150;2023-10-13T13:59:24;6.50;;;2.20;;
773;SDS011;370;48.810;9.150;2023-10-13T14:01:51;26.87;;;2.67;;
773;SDS011;370;48.810;9.150;2023-10-13T14:04:18;8.43;;;2.50;;
773;SDS011;370;48.810;9.150;2023-10-13T14:06:45;4.10;;;2.23;;
773;SDS011;370;48.810;9.150;2023-10-13T14:09:15;2.90;;;2.20;;
773;SDS011;370;48.810;9.150;2023-10-13T14:11:59;7.00;;;2.30;;
773;SDS011;370;48.810;9.150;2023-10-13T14:14:43;11.93;;;2.60;;
773;SDS011;370;48.810;9.150;2023-10-13T14:17:15;4.50;;;2.20;;
773;SDS011;370;48.810;9.150;2023-10-13T14:19:41;12.23;;;2.20;;
773;SDS011;370;48.810;9.150;2023-10-13T14:22:10;6.27;;;1.90;;
773;SDS011;370;48.810;9.150;2023-10-13T14:24:38;5.60;;;2.30;;
773;SDS011;370;48.810;9.150;2023-10-13T14:27:14;5.90;;;2.20;;
773;SDS011;370;48.810;9.150;2023-10-13T14:29:42;12.53;;;2.27;;
773;SDS011;370;48.810;9.150;2023-10-13T14:32:10;3.67;;;2.00;;
773;SDS011;370;48.810;9.150;2023-10-13T14:34:39;3.43;;;2.50;;
773;SDS011;370;48.810;9.150;2023-10-13T14:37:06;3.43;;;2.33;;
773;SDS011;370;48.810;9.150;2023-10-13T14:39:33;4.70;;;2.23;;
773;SDS011;370;48.810;9.150;2023-10-13T14:42:02;2.60;;;1.97;;
773;SDS011;370;48.810;9.150;2023-10-13T14:44:32;3.03;;;1.97;;
773;SDS011;370;48.810;9.150;2023-10-13T14:46:59;3.60;;;1.93;;
773;SDS011;370;48.810;9.150;2023-10-13T14:49:26;6.80;;;2.37;;
773;SDS011;370;48.810;9.150;2023-10-13T14:51:52;3.47;;;1.90;;
773;SDS011;370;48.810;9.150;2023-10-13T14:54:20;2.70;;;1.97;;
773;SDS011;370;48.810;9.150;2023-10-13T14:56:58;15.13;;;2.07;;
773;SDS011;370;48.810;9.150;2023-10-13T14:59:25;4.90;;;2.17;;
773;SDS011;370;48.810;9.150;2023-10-13T15:01:59;2.20;;;1.83;;
773;SDS011;370;48.810;9.150;2023-10-13T15:04:27;6.23;;;2.00;;
773;SDS011;370;48.810;9.150;2023-10-13T15:06:57;1.93;;;1.83;;
773;SDS011;370;48.810;9.150;2023-10-13T15:09:27;7.50;;;1.77;;
773;SDS011;370;48.810;9.150;2023-10-13T15:11:54;2.87;;;1.67;;
773;SDS011;370;48.810;9.150;2023-10-13T15:14:21;3.20;;;2.23;;
773;SDS011;370;48.810;9.150;2023-10-13T15:16:48;3.20;;;1.93;;
773;SDS011;370;48.810;9.150;2023-10-13T15:19:18;2.17;;;2.00;;
773;SDS011;370;48.810;9.150;2023-10-13T15:21:45;3.37;;;2.20;;
773;SDS011;370;48.810;9.150;2023-10-13T15:24:15;16.73;;;2.17;;
773;SDS011;370;48.810;9.150;2023-10-13T15:26:43;6.17;;;2.60;;
773;SDS011;370;48.810;9.150;2023-10-13T15:29:13;8.33;;;2.30;;
773;SDS011;370;48.810;9.150;2023-10-13T15:31:41;4.20;;;2.00;;
773;SDS011;370;48.810;9.150;2023-10-13T15:34:20;8.63;;;2.20;;
773;SDS011;370;48.810;9.150;2023-10-13T15:36:48;2.60;;;2.10;;
773;SDS011;370;48.810;9.150;2023-10-13T15:39:17;4.83;;;1.70;;
773;SDS011;370;48.810;9.150;2023-10-13T15:41:49;4.20;;;2.07;;
773;SDS011;370;48.810;9.150;2023-10-13T15:44:19;2.97;;;1.60;;
773;SDS011;370;48.810;9.150;2023-10-13T15:46:51;4.50;;;2.27;;
773;SDS011;370;48.810;9.150;2023-10-13T15:49:20;2.60;;;1.70;;
773;SDS011;370;48.810;9.150;2023-10-13T15:51:48;4.97;;;1.90;;
773;SDS011;370;48.810;9.150;2023-10-13T15:54:16;3.30;;;2.17;;
773;SDS011;370;48.810;9.150;2023-10-13T15:56:43;2.90;;;1.80;;
773;SDS011;370;48.810;9.150;2023-10-13T15:59:10;3.70;;;1.93;;
773;SDS011;370;48.810;9.150;2023-10-13T16:01:37;3.73;;;1.83;;
773;SDS011;370;48.810;9.150;2023-10-13T16:04:06;3.67;;;1.87;;
773;SDS011;370;48.810;9.150;2023-10-13T16:06:39;2.03;;;1.93;;
773;SDS011;370;48.810;9.150;2023-10-13T16:09:06;6.23;;;2.10;;
773;SDS011;370;48.810;9.150;2023-10-13T16:11:40;7.10;;;1.80;;
773;SDS011;370;48.810;9.150;2023-10-13T16:14:08;6.20;;;1.90;;
773;SDS011;370;48.810;9.150;2023-10-13T16:16:40;4.30;;;1.73;;
773;SDS011;370;48.810;9.150;2023-10-13T16:19:11;5.13;;;1.60;;
773;SDS011;370;48.810;9.150;2023-10-13T16:21:40;4.40;;;2.10;;
773;SDS011;370;48.810;9.150;2023-10-13T16:24:08;3.10;;;2.10;;